createdAt,value
2022-12-03T00:02:19.801Z,95.43
2022-12-03T00:04:46.482Z,95.28
2022-12-03T00:07:13.004Z,95.52
2022-12-03T00:09:39.581Z,95.74
2022-12-03T00:12:06.345Z,96.09
2022-12-03T00:14:32.939Z,95.46
2022-12-03T00:16:59.487Z,95.54
2022-12-03T00:19:26.102Z,95.52
2022-12-03T00:21:52.627Z,95.40
2022-12-03T00:24:19.170Z,95.69
2022-12-03T00:26:45.719Z,95.54
2022-12-03T00:29:12.273Z,95.47
2022-12-03T00:31:38.836Z,95.92
2022-12-03T00:34:05.405Z,96.07
2022-12-03T00:36:31.992Z,95.66
2022-12-03T00:38:58.537Z,95.88
2022-12-03T00:41:25.126Z,95.43
2022-12-03T00:43:51.646Z,95.90
2022-12-03T00:46:21.313Z,95.94
2022-12-03T00:48:48.377Z,96.21
2022-12-03T00:51:14.923Z,95.44
2022-12-03T00:53:41.579Z,95.80
2022-12-03T00:56:08.454Z,95.59
2022-12-03T00:58:35.294Z,95.26
2022-12-03T01:01:01.964Z,95.79
2022-12-03T01:03:28.675Z,95.82
2022-12-03T01:05:55.250Z,96.21
2022-12-03T01:08:21.789Z,95.58
2022-12-03T01:10:48.345Z,95.56
2022-12-03T01:13:14.996Z,95.56
2022-12-03T01:15:41.663Z,95.43
2022-12-03T01:18:08.277Z,96.35
2022-12-03T01:20:36.417Z,96.29
2022-12-03T01:23:03.052Z,95.76
2022-12-03T01:25:29.773Z,95.44
2022-12-03T01:27:56.609Z,95.44
2022-12-03T01:30:23.231Z,95.74
2022-12-03T01:32:49.786Z,95.81
2022-12-03T01:35:16.405Z,96.18
2022-12-03T01:37:42.991Z,96.09
2022-12-03T01:40:14.495Z,96.12
2022-12-03T01:42:42.632Z,96.40
2022-12-03T01:45:22.135Z,95.60
2022-12-03T01:47:48.760Z,95.57
2022-12-03T01:50:27.291Z,95.76
2022-12-03T01:52:58.256Z,96.12
2022-12-03T01:55:26.272Z,96.26
2022-12-03T01:57:55.813Z,96.07
2022-12-03T02:00:24.402Z,95.78
2022-12-03T02:02:55.096Z,95.98
2022-12-03T02:05:26.223Z,96.18
2022-12-03T02:07:52.985Z,96.18
2022-12-03T02:10:26.265Z,95.91
2022-12-03T02:12:58.854Z,96.29
2022-12-03T02:15:26.024Z,95.84
2022-12-03T02:17:53.382Z,96.13
2022-12-03T02:20:20.115Z,96.14
2022-12-03T02:22:50.667Z,96.14
2022-12-03T02:25:23.844Z,95.91
2022-12-03T02:27:51.334Z,95.82
2022-12-03T02:30:20.989Z,95.74
2022-12-03T02:32:49.111Z,95.51
2022-12-03T02:35:22.209Z,95.50
2022-12-03T02:37:52.866Z,95.76
2022-12-03T02:40:24.690Z,95.54
2022-12-03T02:42:56.980Z,95.27
2022-12-03T02:45:36.312Z,95.36
2022-12-03T02:48:11.602Z,95.24
2022-12-03T02:50:41.894Z,95.27
2022-12-03T02:53:21.474Z,94.99
2022-12-03T02:55:49.505Z,95.16
2022-12-03T02:58:16.617Z,95.30
2022-12-03T03:00:44.756Z,94.98
2022-12-03T03:03:11.883Z,94.89
2022-12-03T03:05:40.578Z,94.95
2022-12-03T03:08:08.845Z,94.99
2022-12-03T03:10:37.911Z,95.05
2022-12-03T03:13:09.562Z,94.74
2022-12-03T03:15:37.681Z,94.75
2022-12-03T03:18:05.265Z,94.54
2022-12-03T03:20:32.224Z,94.67
2022-12-03T03:23:10.943Z,94.46
2022-12-03T03:25:39.297Z,94.62
2022-12-03T03:28:07.474Z,94.54
2022-12-03T03:30:36.038Z,94.47
2022-12-03T03:33:02.590Z,94.50
2022-12-03T03:35:29.139Z,94.55
2022-12-03T03:37:57.086Z,94.56
2022-12-03T03:40:23.829Z,94.28
2022-12-03T03:42:50.646Z,94.33
2022-12-03T03:45:18.074Z,93.87
2022-12-03T03:47:45.286Z,93.89
2022-12-03T03:50:13.114Z,94.41
2022-12-03T03:52:41.172Z,93.46
2022-12-03T03:55:10.307Z,93.79
2022-12-03T03:57:37.715Z,93.73
2022-12-03T04:00:06.904Z,93.91
2022-12-03T04:02:34.004Z,93.68
2022-12-03T04:05:00.901Z,93.65
2022-12-03T04:07:27.524Z,93.39
2022-12-03T04:09:54.128Z,93.54
2022-12-03T04:12:38.978Z,93.52
2022-12-03T04:15:06.199Z,93.40
2022-12-03T04:17:32.724Z,93.43
2022-12-03T04:19:59.245Z,93.34
2022-12-03T04:22:40.986Z,93.50
2022-12-03T04:25:28.535Z,92.82
2022-12-03T04:28:13.843Z,93.07
2022-12-03T04:30:40.482Z,92.96
2022-12-03T04:33:25.784Z,93.01
2022-12-03T04:35:52.671Z,92.97
2022-12-03T04:38:19.258Z,93.11
2022-12-03T04:41:00.967Z,92.54
2022-12-03T04:43:33.514Z,92.88
2022-12-03T04:46:01.216Z,92.80
2022-12-03T04:48:27.789Z,92.61
2022-12-03T04:50:54.355Z,92.29
2022-12-03T04:53:20.902Z,92.37
2022-12-03T04:55:47.423Z,92.19
2022-12-03T04:58:13.951Z,92.12
2022-12-03T05:00:40.476Z,92.54
2022-12-03T05:03:07.100Z,91.83
2022-12-03T05:05:33.703Z,92.03
2022-12-03T05:08:00.349Z,91.74
2022-12-03T05:10:26.974Z,92.57
2022-12-03T05:12:53.516Z,92.32
2022-12-03T05:15:20.075Z,92.01
2022-12-03T05:17:46.603Z,91.40
2022-12-03T05:20:32.221Z,91.84
2022-12-03T05:22:58.817Z,92.11
2022-12-03T05:25:25.347Z,91.87
2022-12-03T05:27:51.918Z,92.56
2022-12-03T05:30:18.590Z,91.99
2022-12-03T05:32:45.137Z,92.25
2022-12-03T05:35:11.823Z,92.49
2022-12-03T05:37:38.324Z,92.04
2022-12-03T05:40:05.639Z,91.98
2022-12-03T05:42:50.878Z,91.88
2022-12-03T05:45:18.566Z,91.93
2022-12-03T05:47:45.434Z,92.80
2022-12-03T05:50:12.206Z,92.76
2022-12-03T05:52:38.839Z,92.26
2022-12-03T05:55:06.423Z,93.15
2022-12-03T05:57:32.964Z,92.29
2022-12-03T05:59:59.574Z,92.38
2022-12-03T06:02:26.331Z,92.77
2022-12-03T06:04:53.111Z,92.54
2022-12-03T06:07:19.823Z,92.96
2022-12-03T06:09:46.392Z,93.07
2022-12-03T06:12:12.936Z,93.06
2022-12-03T06:14:39.528Z,93.02
2022-12-03T06:17:06.114Z,93.03
2022-12-03T06:19:33.323Z,93.30
2022-12-03T06:21:59.829Z,93.45
2022-12-03T06:24:26.382Z,93.30
2022-12-03T06:26:52.933Z,93.34
2022-12-03T06:29:19.429Z,93.22
2022-12-03T06:31:46.009Z,93.34
2022-12-03T06:34:12.600Z,92.91
2022-12-03T06:36:39.119Z,93.06
2022-12-03T06:39:05.713Z,93.36
2022-12-03T06:41:32.292Z,93.12
2022-12-03T06:43:58.851Z,93.37
2022-12-03T06:46:25.453Z,93.13
2022-12-03T06:48:52.092Z,93.01
2022-12-03T06:51:18.676Z,92.99
2022-12-03T06:53:45.283Z,92.89
2022-12-03T06:56:11.846Z,93.17
2022-12-03T06:58:38.391Z,93.62
2022-12-03T07:01:05.013Z,93.73
2022-12-03T07:03:31.621Z,93.85
2022-12-03T07:05:58.139Z,94.37
2022-12-03T07:08:24.699Z,94.28
2022-12-03T07:10:51.239Z,94.32
2022-12-03T07:13:17.778Z,94.77
2022-12-03T07:15:44.375Z,94.63
2022-12-03T07:18:10.951Z,94.73
2022-12-03T07:20:37.556Z,95.24
2022-12-03T07:23:04.102Z,95.31
2022-12-03T07:25:30.668Z,95.29
2022-12-03T07:27:57.313Z,95.36
2022-12-03T07:30:25.573Z,95.36
2022-12-03T07:32:52.121Z,95.52
2022-12-03T07:35:18.652Z,95.73
2022-12-03T07:37:45.246Z,95.31
2022-12-03T07:40:12.239Z,95.34
2022-12-03T07:42:38.865Z,95.28
2022-12-03T07:45:06.145Z,94.87
2022-12-03T07:47:32.697Z,94.91
2022-12-03T07:49:59.206Z,95.17
2022-12-03T07:52:25.764Z,94.84
2022-12-03T07:54:52.518Z,94.80
2022-12-03T07:57:19.311Z,95.03
2022-12-03T07:59:45.972Z,94.59
2022-12-03T08:02:15.616Z,94.66
2022-12-03T08:04:46.091Z,94.38
2022-12-03T08:07:12.602Z,94.21
2022-12-03T08:09:40.534Z,94.30
2022-12-03T08:12:17.277Z,94.23
2022-12-03T08:14:44.275Z,94.04
2022-12-03T08:17:15.120Z,93.69
2022-12-03T08:19:46.538Z,94.19
2022-12-03T08:22:15.148Z,94.07
2022-12-03T08:24:42.939Z,93.92
2022-12-03T08:27:19.414Z,94.04
2022-12-03T08:29:46.565Z,93.96
2022-12-03T08:32:13.250Z,93.63
2022-12-03T08:34:44.337Z,93.76
2022-12-03T08:37:19.996Z,93.70
2022-12-03T08:39:54.120Z,93.70
2022-12-03T08:42:43.450Z,93.54
2022-12-03T08:45:35.100Z,93.64
2022-12-03T08:48:21.168Z,93.43
2022-12-03T08:50:48.269Z,93.63
2022-12-03T08:53:42.513Z,93.70
2022-12-03T08:56:29.705Z,93.66
2022-12-03T08:59:20.265Z,93.67
2022-12-03T09:01:48.640Z,93.40
2022-12-03T09:04:36.172Z,93.46
2022-12-03T09:07:02.746Z,93.07
2022-12-03T09:09:29.525Z,92.89
2022-12-03T09:11:56.603Z,93.11
2022-12-03T09:14:23.880Z,93.15
2022-12-03T09:16:55.686Z,92.80
2022-12-03T09:19:24.857Z,92.60
2022-12-03T09:21:51.987Z,92.81
2022-12-03T09:24:18.590Z,92.75
2022-12-03T09:26:45.120Z,92.87
2022-12-03T09:29:12.777Z,92.57
2022-12-03T09:31:40.418Z,92.75
2022-12-03T09:34:07.815Z,92.92
2022-12-03T09:36:34.391Z,93.05
2022-12-03T09:39:01.032Z,92.99
2022-12-03T09:41:27.813Z,93.02
2022-12-03T09:44:17.150Z,92.43
2022-12-03T09:46:42.636Z,92.50
2022-12-03T09:49:15.788Z,92.28
2022-12-03T09:51:44.464Z,92.68
2022-12-03T09:54:21.739Z,92.33
2022-12-03T09:56:48.332Z,92.45
2022-12-03T09:59:16.105Z,92.24
2022-12-03T10:01:43.060Z,92.12
2022-12-03T10:04:10.053Z,91.85
2022-12-03T10:06:39.895Z,92.54
2022-12-03T10:09:12.421Z,92.29
2022-12-03T10:11:39.303Z,92.44
2022-12-03T10:14:06.531Z,91.89
2022-12-03T10:16:33.863Z,92.00
2022-12-03T10:19:01.091Z,91.99
2022-12-03T10:21:36.295Z,91.94
2022-12-03T10:24:19.455Z,91.62
2022-12-03T10:26:47.786Z,91.77
2022-12-03T10:29:35.603Z,91.73
2022-12-03T10:32:07.850Z,91.53
2022-12-03T10:34:40.105Z,91.71
2022-12-03T10:37:16.965Z,91.11
2022-12-03T10:40:09.390Z,91.67
2022-12-03T10:42:40.682Z,91.34
2022-12-03T10:45:18.171Z,91.37
2022-12-03T10:48:04.219Z,91.50
2022-12-03T10:50:31.550Z,91.67
2022-12-03T10:52:58.238Z,91.41
2022-12-03T10:55:25.188Z,91.63
2022-12-03T10:57:52.210Z,91.50
2022-12-03T11:00:20.114Z,91.82
2022-12-03T11:02:54.672Z,91.17
2022-12-03T11:05:28.770Z,91.58
2022-12-03T11:07:56.417Z,90.91
2022-12-03T11:10:23.683Z,90.68
2022-12-03T11:13:27.764Z,90.39
2022-12-03T11:15:55.050Z,90.78
2022-12-03T11:18:36.548Z,89.73
2022-12-03T11:21:07.739Z,88.94
2022-12-03T11:23:46.513Z,89.03
2022-12-03T11:26:19.586Z,88.53
2022-12-03T11:28:46.464Z,88.48
2022-12-03T11:31:46.625Z,88.55
2022-12-03T11:34:22.633Z,88.52
2022-12-03T11:37:10.741Z,88.45
2022-12-03T11:39:49.581Z,88.94
2022-12-03T11:42:27.958Z,88.46
2022-12-03T11:45:06.482Z,88.68
2022-12-03T11:47:40.347Z,88.45
2022-12-03T11:50:23.766Z,88.51
2022-12-03T11:52:55.409Z,88.76
2022-12-03T11:55:34.744Z,88.59
2022-12-03T11:58:16.870Z,88.88
2022-12-03T12:00:51.255Z,88.83
2022-12-03T12:03:36.605Z,88.53
2022-12-03T12:06:09.748Z,88.49
2022-12-03T12:08:42.463Z,88.54
2022-12-03T12:11:27.788Z,88.91
2022-12-03T12:13:57.488Z,88.81
2022-12-03T12:16:37.574Z,89.25
2022-12-03T12:19:34.148Z,88.66
2022-12-03T12:22:30.111Z,88.39
2022-12-03T12:25:01.784Z,88.29
2022-12-03T12:27:32.808Z,88.81
2022-12-03T12:30:03.017Z,89.04
2022-12-03T12:32:32.815Z,88.47
2022-12-03T12:35:14.429Z,88.95
2022-12-03T12:37:59.708Z,89.15
2022-12-03T12:40:32.444Z,88.59
2022-12-03T12:43:05.363Z,88.67
2022-12-03T12:45:39.256Z,89.26
2022-12-03T12:48:20.967Z,89.28
2022-12-03T12:50:51.179Z,89.11
2022-12-03T12:53:30.833Z,89.74
2022-12-03T12:56:21.982Z,89.79
2022-12-03T12:58:48.944Z,89.81
2022-12-03T13:01:28.592Z,89.44
2022-12-03T13:03:55.714Z,89.42
2022-12-03T13:06:32.195Z,89.84
2022-12-03T13:09:01.208Z,89.42
2022-12-03T13:11:42.100Z,89.89
2022-12-03T13:14:31.788Z,89.38
2022-12-03T13:17:01.375Z,89.26
2022-12-03T13:19:30.769Z,89.76
2022-12-03T13:22:00.981Z,89.67
2022-12-03T13:24:32.580Z,89.47
2022-12-03T13:27:02.468Z,89.50
2022-12-03T13:29:29.223Z,89.35
2022-12-03T13:31:58.913Z,89.42
2022-12-03T13:34:28.719Z,89.48
2022-12-03T13:36:58.462Z,89.66
2022-12-03T13:39:43.534Z,89.36
2022-12-03T13:42:45.241Z,89.29
2022-12-03T13:45:15.034Z,89.56
2022-12-03T13:47:44.384Z,89.79
2022-12-03T13:50:32.124Z,89.55
2022-12-03T13:53:00.415Z,89.83
2022-12-03T13:55:29.914Z,89.72
2022-12-03T13:57:56.906Z,89.68
2022-12-03T14:00:24.387Z,89.61
2022-12-03T14:02:51.094Z,89.97
2022-12-03T14:05:17.654Z,90.08
2022-12-03T14:07:44.232Z,90.17
2022-12-03T14:10:12.269Z,90.05
2022-12-03T14:12:38.896Z,89.96
2022-12-03T14:15:06.924Z,90.51
2022-12-03T14:17:33.457Z,90.24
2022-12-03T14:20:01.431Z,90.38
2022-12-03T14:22:28.854Z,90.53
2022-12-03T14:24:56.010Z,91.01
2022-12-03T14:27:24.726Z,91.02
2022-12-03T14:29:52.102Z,90.63
2022-12-03T14:32:19.179Z,91.15
2022-12-03T14:34:45.749Z,90.83
2022-12-03T14:37:12.472Z,90.67
2022-12-03T14:39:39.336Z,91.06
2022-12-03T14:42:14.678Z,91.18
2022-12-03T14:44:49.152Z,90.79
2022-12-03T14:47:19.054Z,91.21
2022-12-03T14:49:46.374Z,90.90
2022-12-03T14:52:13.105Z,90.88
2022-12-03T14:54:42.665Z,90.67
2022-12-03T14:57:14.127Z,90.80
2022-12-03T14:59:41.892Z,91.00
2022-12-03T15:02:09.788Z,90.68
2022-12-03T15:04:36.552Z,90.71
2022-12-03T15:07:03.623Z,90.92
2022-12-03T15:09:30.311Z,90.92
2022-12-03T15:11:56.890Z,90.94
2022-12-03T15:14:23.460Z,90.71
2022-12-03T15:16:50.111Z,90.58
2022-12-03T15:19:17.150Z,90.49
2022-12-03T15:21:43.711Z,91.03
2022-12-03T15:24:10.745Z,90.60
2022-12-03T15:26:37.503Z,90.59
2022-12-03T15:29:04.093Z,91.07
2022-12-03T15:31:30.808Z,91.03
2022-12-03T15:33:57.401Z,91.79
2022-12-03T15:36:23.956Z,91.29
2022-12-03T15:38:50.492Z,91.25
2022-12-03T15:41:28.729Z,91.67
2022-12-03T15:43:58.025Z,91.46
2022-12-03T15:46:26.121Z,91.23
2022-12-03T15:48:54.646Z,91.76
2022-12-03T15:51:21.509Z,91.82
2022-12-03T15:53:48.165Z,90.96
2022-12-03T15:56:14.939Z,91.47
2022-12-03T15:58:41.780Z,91.48
2022-12-03T16:01:09.334Z,91.62
2022-12-03T16:03:36.181Z,91.00
2022-12-03T16:06:02.814Z,91.12
2022-12-03T16:08:29.602Z,91.34
2022-12-03T16:10:56.292Z,91.24
2022-12-03T16:13:22.852Z,90.99
2022-12-03T16:15:49.647Z,91.36
2022-12-03T16:18:16.198Z,91.49
2022-12-03T16:20:42.755Z,91.07
2022-12-03T16:23:09.332Z,91.49
2022-12-03T16:25:36.015Z,91.55
2022-12-03T16:28:02.578Z,90.90
2022-12-03T16:30:29.193Z,90.24
2022-12-03T16:32:55.756Z,90.44
2022-12-03T16:35:22.289Z,91.01
2022-12-03T16:37:48.908Z,90.36
2022-12-03T16:40:15.591Z,90.70
2022-12-03T16:42:42.216Z,90.27
2022-12-03T16:45:09.225Z,90.79
2022-12-03T16:47:35.882Z,90.29
2022-12-03T16:50:04.860Z,90.47
2022-12-03T16:52:31.440Z,90.06
2022-12-03T16:54:58.064Z,90.53
2022-12-03T16:57:27.662Z,89.94
2022-12-03T16:59:58.295Z,89.96
2022-12-03T17:02:25.100Z,89.69
2022-12-03T17:04:51.720Z,90.60
2022-12-03T17:07:18.269Z,90.06
2022-12-03T17:09:44.820Z,89.90
2022-12-03T17:12:11.415Z,90.14
2022-12-03T17:14:37.975Z,90.58
2022-12-03T17:17:04.525Z,91.13
2022-12-03T17:19:31.098Z,90.65
2022-12-03T17:21:59.727Z,91.18
2022-12-03T17:24:26.333Z,91.56
2022-12-03T17:26:53.069Z,91.39
2022-12-03T17:29:19.594Z,91.37
2022-12-03T17:31:46.196Z,91.43
2022-12-03T17:34:12.835Z,91.73
2022-12-03T17:36:39.373Z,91.48
2022-12-03T17:39:05.899Z,91.30
2022-12-03T17:41:32.426Z,91.94
2022-12-03T17:43:58.979Z,91.75
2022-12-03T17:46:25.558Z,91.97
2022-12-03T17:48:52.128Z,92.42
2022-12-03T17:51:20.859Z,92.26
2022-12-03T17:53:47.472Z,92.39
2022-12-03T17:56:14.325Z,91.89
2022-12-03T17:58:40.855Z,91.88
2022-12-03T18:01:10.348Z,92.47
2022-12-03T18:03:37.596Z,92.11
2022-12-03T18:06:04.830Z,92.45
2022-12-03T18:08:31.407Z,92.18
2022-12-03T18:10:57.941Z,92.21
2022-12-03T18:13:24.519Z,92.42
2022-12-03T18:15:51.054Z,92.55
2022-12-03T18:18:17.708Z,91.80
2022-12-03T18:20:44.686Z,92.33
2022-12-03T18:23:12.188Z,92.16
2022-12-03T18:25:38.803Z,92.87
2022-12-03T18:28:05.744Z,92.17
2022-12-03T18:30:32.296Z,92.72
2022-12-03T18:32:58.884Z,92.17
2022-12-03T18:35:25.540Z,92.23
2022-12-03T18:37:52.130Z,92.16
2022-12-03T18:40:22.723Z,91.86
2022-12-03T18:42:49.331Z,91.69
2022-12-03T18:45:16.349Z,91.99
2022-12-03T18:47:43.234Z,92.00
2022-12-03T18:50:11.481Z,91.99
2022-12-03T18:52:38.516Z,92.02
2022-12-03T18:55:05.949Z,92.22
2022-12-03T18:57:32.486Z,91.79
2022-12-03T18:59:59.188Z,92.31
2022-12-03T19:02:54.215Z,92.04
2022-12-03T19:05:12.396Z,92.25
2022-12-03T19:07:39.045Z,92.12
2022-12-03T19:10:06.165Z,91.83
2022-12-03T19:12:33.159Z,91.94
2022-12-03T19:14:59.699Z,91.55
2022-12-03T19:17:27.363Z,91.79
2022-12-03T19:19:54.746Z,91.39
2022-12-03T19:22:21.612Z,91.80
2022-12-03T19:24:48.197Z,92.15
2022-12-03T19:27:14.780Z,91.42
2022-12-03T19:29:41.543Z,91.77
2022-12-03T19:32:09.020Z,91.57
2022-12-03T19:34:36.045Z,91.38
2022-12-03T19:37:02.550Z,91.64
2022-12-03T19:39:29.078Z,91.65
2022-12-03T19:41:55.632Z,91.05
2022-12-03T19:44:22.220Z,91.62
2022-12-03T19:46:49.550Z,91.55
2022-12-03T19:49:21.265Z,91.37
2022-12-03T19:51:48.283Z,91.43
2022-12-03T19:54:15.738Z,91.60
2022-12-03T19:56:43.050Z,91.49
2022-12-03T19:59:12.151Z,91.61
2022-12-03T20:01:40.878Z,92.05
2022-12-03T20:04:08.155Z,91.82
2022-12-03T20:06:37.662Z,91.91
2022-12-03T20:09:08.600Z,92.15
2022-12-03T20:11:35.837Z,91.76
2022-12-03T20:14:05.374Z,91.94
2022-12-03T20:16:32.238Z,91.97
2022-12-03T20:19:01.640Z,92.31
2022-12-03T20:21:31.741Z,92.26
2022-12-03T20:23:58.534Z,92.57
2022-12-03T20:26:25.785Z,92.32
2022-12-03T20:28:56.293Z,92.87
2022-12-03T20:31:25.647Z,92.57
2022-12-03T20:33:56.014Z,92.42
2022-12-03T20:36:23.334Z,92.47
2022-12-03T20:38:54.951Z,92.45
2022-12-03T20:41:21.853Z,92.75
2022-12-03T20:43:48.969Z,92.78
2022-12-03T20:46:30.186Z,92.68
2022-12-03T20:48:57.675Z,93.17
2022-12-03T20:51:27.234Z,92.99
2022-12-03T20:53:54.606Z,93.41
2022-12-03T20:56:33.516Z,93.07
2022-12-03T20:59:04.805Z,93.49
2022-12-03T21:01:31.589Z,93.37
2022-12-03T21:03:58.397Z,93.32
2022-12-03T21:06:27.851Z,93.32
2022-12-03T21:08:56.732Z,93.45
2022-12-03T21:11:26.012Z,93.62
2022-12-03T21:13:54.364Z,93.32
2022-12-03T21:16:45.598Z,93.21
2022-12-03T21:19:11.376Z,92.81
2022-12-03T21:21:37.966Z,93.30
2022-12-03T21:24:04.818Z,93.02
2022-12-03T21:26:31.377Z,93.21
2022-12-03T21:28:58.119Z,93.30
2022-12-03T21:31:26.435Z,93.12
2022-12-03T21:33:54.462Z,93.00
2022-12-03T21:36:21.543Z,93.35
2022-12-03T21:38:48.457Z,94.01
2022-12-03T21:41:15.502Z,93.41
2022-12-03T21:43:43.471Z,93.83
2022-12-03T21:47:08.426Z,93.27
2022-12-03T21:49:00.226Z,93.58
2022-12-03T21:51:26.789Z,93.20
2022-12-03T21:53:53.584Z,93.55
2022-12-03T21:56:20.454Z,93.66
2022-12-03T21:58:47.040Z,93.95
2022-12-03T22:01:19.793Z,93.72
2022-12-03T22:03:47.087Z,94.31
2022-12-03T22:06:14.273Z,94.35
2022-12-03T22:08:41.214Z,94.43
2022-12-03T22:11:11.015Z,94.43
2022-12-03T22:13:39.498Z,94.37
2022-12-03T22:16:08.156Z,94.37
2022-12-03T22:18:34.854Z,94.98
2022-12-03T22:21:06.058Z,94.12
2022-12-03T22:23:33.350Z,94.59
2022-12-03T22:26:02.100Z,94.80
2022-12-03T22:28:29.270Z,94.82
2022-12-03T22:30:55.861Z,94.97
2022-12-03T22:33:23.155Z,95.14
2022-12-03T22:36:00.808Z,94.81
2022-12-03T22:38:29.134Z,94.68
2022-12-03T22:40:56.158Z,94.57
2022-12-03T22:43:23.133Z,94.76
2022-12-03T22:45:54.754Z,95.19
2022-12-03T22:48:22.735Z,95.29
2022-12-03T22:50:51.154Z,95.58
2022-12-03T22:53:18.076Z,94.97
2022-12-03T22:55:44.738Z,95.21
2022-12-03T22:58:11.377Z,94.96
2022-12-03T23:00:40.497Z,95.25
2022-12-03T23:03:07.926Z,95.11
2022-12-03T23:05:38.994Z,95.16
2022-12-03T23:08:11.610Z,95.41
2022-12-03T23:10:42.201Z,95.22
2022-12-03T23:13:09.954Z,95.73
2022-12-03T23:15:37.020Z,95.47
2022-12-03T23:18:03.901Z,95.31
2022-12-03T23:20:30.453Z,95.90
2022-12-03T23:22:56.964Z,95.29
2022-12-03T23:25:23.483Z,95.00
2022-12-03T23:27:50.064Z,95.47
2022-12-03T23:30:16.757Z,94.85
2022-12-03T23:32:44.470Z,95.72
2022-12-03T23:35:12.553Z,96.09
2022-12-03T23:37:42.239Z,95.96
2022-12-03T23:40:09.216Z,95.24
2022-12-03T23:42:35.764Z,95.36
2022-12-03T23:45:02.328Z,95.57
2022-12-03T23:47:28.935Z,95.56
2022-12-03T23:49:55.672Z,95.42
2022-12-03T23:52:22.494Z,95.26
2022-12-03T23:54:49.033Z,95.95
2022-12-03T23:57:16.220Z,95.46
2022-12-03T23:59:43.390Z,95.65
